sensor_id;sensor_type;location;lat;lon;timestamp;P1;durP1;ratioP1;P2;durP2;ratioP2
62509;SDS011;48558;48.242;11.654;2023-03-23T00:02:48;2.75;;;2.22;;
62509;SDS011;48558;48.242;11.654;2023-03-23T00:06:58;5.22;;;2.13;;
62509;SDS011;48558;48.242;11.654;2023-03-23T00:11:17;1.98;;;1.88;;
62509;SDS011;48558;48.242;11.654;2023-03-23T00:15:30;4.10;;;2.20;;
62509;SDS011;48558;48.242;11.654;2023-03-23T00:19:43;2.28;;;2.08;;
62509;SDS011;48558;48.242;11.654;2023-03-23T00:24:06;4.00;;;2.20;;
62509;SDS011;48558;48.242;11.654;2023-03-23T00:28:20;2.25;;;2.03;;
62509;SDS011;48558;48.242;11.654;2023-03-23T00:32:34;3.60;;;2.00;;
62509;SDS011;48558;48.242;11.654;2023-03-23T00:36:46;3.15;;;2.30;;
62509;SDS011;48558;48.242;11.654;2023-03-23T00:41:03;3.33;;;2.17;;
62509;SDS011;48558;48.242;11.654;2023-03-23T00:45:15;2.58;;;2.08;;
62509;SDS011;48558;48.242;11.654;2023-03-23T00:49:27;2.00;;;1.83;;
62509;SDS011;48558;48.242;11.654;2023-03-23T00:53:48;3.42;;;2.00;;
62509;SDS011;48558;48.242;11.654;2023-03-23T00:57:58;2.30;;;2.10;;
62509;SDS011;48558;48.242;11.654;2023-03-23T01:02:09;5.38;;;2.13;;
62509;SDS011;48558;48.242;11.654;2023-03-23T01:06:19;2.05;;;1.88;;
62509;SDS011;48558;48.242;11.654;2023-03-23T01:10:31;2.40;;;2.20;;
62509;SDS011;48558;48.242;11.654;2023-03-23T01:14:53;2.50;;;2.30;;
62509;SDS011;48558;48.242;11.654;2023-03-23T01:19:14;3.38;;;2.25;;
62509;SDS011;48558;48.242;11.654;2023-03-23T01:23:25;2.75;;;2.25;;
62509;SDS011;48558;48.242;11.654;2023-03-23T01:27:36;3.13;;;2.45;;
62509;SDS011;48558;48.242;11.654;2023-03-23T01:31:57;2.33;;;2.13;;
62509;SDS011;48558;48.242;11.654;2023-03-23T01:36:10;2.63;;;2.42;;
62509;SDS011;48558;48.242;11.654;2023-03-23T01:40:32;3.45;;;2.20;;
62509;SDS011;48558;48.242;11.654;2023-03-23T01:49:04;2.53;;;2.33;;
62509;SDS011;48558;48.242;11.654;2023-03-23T01:53:19;5.40;;;2.30;;
62509;SDS011;48558;48.242;11.654;2023-03-23T01:57:32;2.42;;;2.13;;
62509;SDS011;48558;48.242;11.654;2023-03-23T02:01:44;2.20;;;2.00;;
62509;SDS011;48558;48.242;11.654;2023-03-23T02:05:56;1.67;;;1.58;;
62509;SDS011;48558;48.242;11.654;2023-03-23T02:10:22;2.08;;;1.88;;
62509;SDS011;48558;48.242;11.654;2023-03-23T02:14:32;1.98;;;1.80;;
62509;SDS011;48558;48.242;11.654;2023-03-23T02:23:13;3.72;;;2.10;;
62509;SDS011;48558;48.242;11.654;2023-03-23T02:32:36;4.75;;;2.20;;
62509;SDS011;48558;48.242;11.654;2023-03-23T02:36:54;1.80;;;1.70;;
62509;SDS011;48558;48.242;11.654;2023-03-23T02:41:11;1.90;;;1.80;;
62509;SDS011;48558;48.242;11.654;2023-03-23T02:45:33;3.70;;;1.67;;
62509;SDS011;48558;48.242;11.654;2023-03-23T02:49:48;3.03;;;1.88;;
62509;SDS011;48558;48.242;11.654;2023-03-23T02:54:03;2.13;;;1.65;;
62509;SDS011;48558;48.242;11.654;2023-03-23T02:58:15;2.00;;;1.90;;
62509;SDS011;48558;48.242;11.654;2023-03-23T03:02:27;2.08;;;1.95;;
62509;SDS011;48558;48.242;11.654;2023-03-23T03:11:25;2.63;;;2.00;;
62509;SDS011;48558;48.242;11.654;2023-03-23T03:15:36;4.60;;;1.80;;
62509;SDS011;48558;48.242;11.654;2023-03-23T03:19:56;2.22;;;2.03;;
62509;SDS011;48558;48.242;11.654;2023-03-23T03:24:19;1.60;;;1.50;;
62509;SDS011;48558;48.242;11.654;2023-03-23T03:28:34;3.20;;;2.08;;
62509;SDS011;48558;48.242;11.654;2023-03-23T03:32:46;3.22;;;2.13;;
62509;SDS011;48558;48.242;11.654;2023-03-23T03:37:11;1.80;;;1.70;;
62509;SDS011;48558;48.242;11.654;2023-03-23T03:41:22;2.03;;;1.65;;
62509;SDS011;48558;48.242;11.654;2023-03-23T03:45:33;1.65;;;1.50;;
62509;SDS011;48558;48.242;11.654;2023-03-23T03:49:53;1.83;;;1.55;;
62509;SDS011;48558;48.242;11.654;2023-03-23T03:54:04;2.20;;;2.00;;
62509;SDS011;48558;48.242;11.654;2023-03-23T03:58:15;1.77;;;1.67;;
62509;SDS011;48558;48.242;11.654;2023-03-23T04:02:26;1.65;;;1.50;;
62509;SDS011;48558;48.242;11.654;2023-03-23T04:06:37;2.47;;;1.85;;
62509;SDS011;48558;48.242;11.654;2023-03-23T04:10:55;2.30;;;1.65;;
62509;SDS011;48558;48.242;11.654;2023-03-23T04:15:06;2.90;;;1.88;;
62509;SDS011;48558;48.242;11.654;2023-03-23T04:19:27;3.67;;;2.03;;
62509;SDS011;48558;48.242;11.654;2023-03-23T04:23:38;2.15;;;1.92;;
62509;SDS011;48558;48.242;11.654;2023-03-23T04:27:50;2.05;;;1.85;;
62509;SDS011;48558;48.242;11.654;2023-03-23T04:32:04;2.08;;;1.90;;
62509;SDS011;48558;48.242;11.654;2023-03-23T04:36:15;5.38;;;1.92;;
62509;SDS011;48558;48.242;11.654;2023-03-23T04:40:26;2.20;;;1.80;;
62509;SDS011;48558;48.242;11.654;2023-03-23T04:44:47;2.10;;;1.90;;
62509;SDS011;48558;48.242;11.654;2023-03-23T04:49:04;1.67;;;1.55;;
62509;SDS011;48558;48.242;11.654;2023-03-23T04:53:14;2.00;;;1.90;;
62509;SDS011;48558;48.242;11.654;2023-03-23T04:57:27;2.97;;;1.95;;
62509;SDS011;48558;48.242;11.654;2023-03-23T05:01:39;2.30;;;1.60;;
62509;SDS011;48558;48.242;11.654;2023-03-23T05:05:55;2.35;;;2.05;;
62509;SDS011;48558;48.242;11.654;2023-03-23T05:10:16;7.13;;;2.10;;
62509;SDS011;48558;48.242;11.654;2023-03-23T05:14:27;2.50;;;1.73;;
62509;SDS011;48558;48.242;11.654;2023-03-23T05:18:37;2.53;;;1.58;;
62509;SDS011;48558;48.242;11.654;2023-03-23T05:22:49;4.00;;;1.83;;
62509;SDS011;48558;48.242;11.654;2023-03-23T05:27:09;3.30;;;2.20;;
62509;SDS011;48558;48.242;11.654;2023-03-23T05:31:21;2.40;;;2.20;;
62509;SDS011;48558;48.242;11.654;2023-03-23T05:35:33;1.73;;;1.63;;
62509;SDS011;48558;48.242;11.654;2023-03-23T05:39:43;4.07;;;2.00;;
62509;SDS011;48558;48.242;11.654;2023-03-23T05:43:55;5.85;;;1.90;;
62509;SDS011;48558;48.242;11.654;2023-03-23T05:48:05;6.20;;;2.20;;
62509;SDS011;48558;48.242;11.654;2023-03-23T05:52:16;2.45;;;1.67;;
62509;SDS011;48558;48.242;11.654;2023-03-23T05:56:27;1.63;;;1.52;;
62509;SDS011;48558;48.242;11.654;2023-03-23T06:00:50;4.68;;;1.98;;
62509;SDS011;48558;48.242;11.654;2023-03-23T06:05:01;1.75;;;1.65;;
62509;SDS011;48558;48.242;11.654;2023-03-23T06:09:12;1.50;;;1.40;;
62509;SDS011;48558;48.242;11.654;2023-03-23T06:13:22;4.03;;;1.55;;
62509;SDS011;48558;48.242;11.654;2023-03-23T06:17:34;1.48;;;1.35;;
62509;SDS011;48558;48.242;11.654;2023-03-23T06:21:46;1.50;;;1.40;;
62509;SDS011;48558;48.242;11.654;2023-03-23T06:25:57;3.20;;;1.80;;
62509;SDS011;48558;48.242;11.654;2023-03-23T06:30:18;1.67;;;1.55;;
62509;SDS011;48558;48.242;11.654;2023-03-23T06:34:30;1.70;;;1.60;;
62509;SDS011;48558;48.242;11.654;2023-03-23T06:38:42;3.38;;;1.60;;
62509;SDS011;48558;48.242;11.654;2023-03-23T06:42:53;9.07;;;1.90;;
62509;SDS011;48558;48.242;11.654;2023-03-23T06:47:04;3.45;;;2.05;;
62509;SDS011;48558;48.242;11.654;2023-03-23T06:51:15;4.05;;;1.90;;
62509;SDS011;48558;48.242;11.654;2023-03-23T06:55:27;5.53;;;2.38;;
62509;SDS011;48558;48.242;11.654;2023-03-23T06:59:42;2.40;;;1.92;;
62509;SDS011;48558;48.242;11.654;2023-03-23T07:03:54;3.92;;;1.73;;
62509;SDS011;48558;48.242;11.654;2023-03-23T07:08:05;8.27;;;1.98;;
62509;SDS011;48558;48.242;11.654;2023-03-23T07:12:16;2.97;;;1.70;;
62509;SDS011;48558;48.242;11.654;2023-03-23T07:16:27;4.32;;;1.70;;
62509;SDS011;48558;48.242;11.654;2023-03-23T07:20:37;1.92;;;1.80;;
62509;SDS011;48558;48.242;11.654;2023-03-23T07:24:48;4.15;;;2.08;;
62509;SDS011;48558;48.242;11.654;2023-03-23T07:28:59;5.10;;;1.90;;
62509;SDS011;48558;48.242;11.654;2023-03-23T07:33:09;4.22;;;1.85;;
62509;SDS011;48558;48.242;11.654;2023-03-23T07:37:20;1.58;;;1.48;;
62509;SDS011;48558;48.242;11.654;2023-03-23T07:41:31;2.05;;;1.73;;
62509;SDS011;48558;48.242;11.654;2023-03-23T07:45:43;3.47;;;1.77;;
62509;SDS011;48558;48.242;11.654;2023-03-23T07:49:53;8.25;;;2.58;;
62509;SDS011;48558;48.242;11.654;2023-03-23T07:54:14;3.28;;;2.05;;
62509;SDS011;48558;48.242;11.654;2023-03-23T07:58:26;3.38;;;1.80;;
62509;SDS011;48558;48.242;11.654;2023-03-23T08:02:38;3.47;;;1.70;;
62509;SDS011;48558;48.242;11.654;2023-03-23T08:06:49;3.63;;;1.75;;
62509;SDS011;48558;48.242;11.654;2023-03-23T08:10:59;3.03;;;1.58;;
62509;SDS011;48558;48.242;11.654;2023-03-23T08:15:11;3.30;;;1.92;;
62509;SDS011;48558;48.242;11.654;2023-03-23T08:19:35;4.13;;;1.80;;
62509;SDS011;48558;48.242;11.654;2023-03-23T08:23:46;1.92;;;1.60;;
62509;SDS011;48558;48.242;11.654;2023-03-23T08:28:00;3.75;;;2.78;;
62509;SDS011;48558;48.242;11.654;2023-03-23T08:32:13;6.05;;;1.73;;
62509;SDS011;48558;48.242;11.654;2023-03-23T08:36:24;4.53;;;1.80;;
62509;SDS011;48558;48.242;11.654;2023-03-23T08:40:35;1.73;;;1.63;;
62509;SDS011;48558;48.242;11.654;2023-03-23T08:44:47;2.30;;;2.10;;
62509;SDS011;48558;48.242;11.654;2023-03-23T08:48:58;4.15;;;1.90;;
62509;SDS011;48558;48.242;11.654;2023-03-23T08:53:09;3.42;;;1.92;;
62509;SDS011;48558;48.242;11.654;2023-03-23T08:57:20;1.88;;;1.73;;
62509;SDS011;48558;48.242;11.654;2023-03-23T09:01:32;4.18;;;1.50;;
62509;SDS011;48558;48.242;11.654;2023-03-23T09:05:43;2.10;;;1.70;;
62509;SDS011;48558;48.242;11.654;2023-03-23T09:09:56;2.53;;;1.50;;
62509;SDS011;48558;48.242;11.654;2023-03-23T09:14:06;2.78;;;1.63;;
62509;SDS011;48558;48.242;11.654;2023-03-23T09:18:18;2.25;;;1.80;;
62509;SDS011;48558;48.242;11.654;2023-03-23T09:22:29;1.85;;;1.70;;
62509;SDS011;48558;48.242;11.654;2023-03-23T09:26:39;4.45;;;1.63;;
62509;SDS011;48558;48.242;11.654;2023-03-23T09:30:51;10.55;;;1.80;;
62509;SDS011;48558;48.242;11.654;2023-03-23T09:35:07;4.70;;;1.58;;
62509;SDS011;48558;48.242;11.654;2023-03-23T09:39:19;7.28;;;1.95;;
62509;SDS011;48558;48.242;11.654;2023-03-23T09:43:45;4.53;;;1.90;;
62509;SDS011;48558;48.242;11.654;2023-03-23T09:48:05;1.60;;;1.50;;
62509;SDS011;48558;48.242;11.654;2023-03-23T09:52:43;1.15;;;1.13;;
62509;SDS011;48558;48.242;11.654;2023-03-23T09:57:02;1.35;;;1.25;;
62509;SDS011;48558;48.242;11.654;2023-03-23T10:01:32;2.65;;;1.40;;
62509;SDS011;48558;48.242;11.654;2023-03-23T10:05:53;1.30;;;1.30;;
62509;SDS011;48558;48.242;11.654;2023-03-23T10:10:05;1.40;;;1.40;;
62509;SDS011;48558;48.242;11.654;2023-03-23T10:32:48;4.15;;;1.90;;
62509;SDS011;48558;48.242;11.654;2023-03-23T10:37:20;3.28;;;1.75;;
62509;SDS011;48558;48.242;11.654;2023-03-23T10:41:36;2.00;;;1.77;;
62509;SDS011;48558;48.242;11.654;2023-03-23T10:45:49;4.53;;;1.60;;
62509;SDS011;48558;48.242;11.654;2023-03-23T10:50:10;1.52;;;1.42;;
62509;SDS011;48558;48.242;11.654;2023-03-23T10:54:32;1.80;;;1.63;;
62509;SDS011;48558;48.242;11.654;2023-03-23T10:58:49;1.52;;;1.40;;
62509;SDS011;48558;48.242;11.654;2023-03-23T11:03:04;2.08;;;1.88;;
62509;SDS011;48558;48.242;11.654;2023-03-23T11:07:47;1.52;;;1.42;;
62509;SDS011;48558;48.242;11.654;2023-03-23T11:12:04;4.75;;;2.20;;
62509;SDS011;48558;48.242;11.654;2023-03-23T11:16:28;1.88;;;1.77;;
62509;SDS011;48558;48.242;11.654;2023-03-23T11:20:45;2.70;;;1.80;;
62509;SDS011;48558;48.242;11.654;2023-03-23T11:25:02;3.80;;;1.95;;
62509;SDS011;48558;48.242;11.654;2023-03-23T11:29:20;2.17;;;1.85;;
62509;SDS011;48558;48.242;11.654;2023-03-23T11:38:19;4.60;;;2.30;;
62509;SDS011;48558;48.242;11.654;2023-03-23T11:46:52;4.10;;;2.08;;
62509;SDS011;48558;48.242;11.654;2023-03-23T11:51:16;2.65;;;1.90;;
62509;SDS011;48558;48.242;11.654;2023-03-23T11:55:50;2.50;;;2.00;;
62509;SDS011;48558;48.242;11.654;2023-03-23T12:00:17;1.73;;;1.50;;
62509;SDS011;48558;48.242;11.654;2023-03-23T12:09:40;4.10;;;2.25;;
62509;SDS011;48558;48.242;11.654;2023-03-23T12:23:06;2.13;;;1.88;;
62509;SDS011;48558;48.242;11.654;2023-03-23T12:41:17;2.17;;;1.80;;
62509;SDS011;48558;48.242;11.654;2023-03-23T12:46:03;3.97;;;1.98;;
62509;SDS011;48558;48.242;11.654;2023-03-23T12:55:00;2.67;;;2.03;;
62509;SDS011;48558;48.242;11.654;2023-03-23T12:59:35;1.92;;;1.77;;
62509;SDS011;48558;48.242;11.654;2023-03-23T13:08:42;3.85;;;2.00;;
62509;SDS011;48558;48.242;11.654;2023-03-23T13:13:00;3.25;;;1.83;;
62509;SDS011;48558;48.242;11.654;2023-03-23T13:22:17;2.10;;;1.90;;
62509;SDS011;48558;48.242;11.654;2023-03-23T13:26:39;4.88;;;1.73;;
62509;SDS011;48558;48.242;11.654;2023-03-23T13:30:57;2.05;;;1.77;;
62509;SDS011;48558;48.242;11.654;2023-03-23T13:35:16;4.15;;;1.88;;
62509;SDS011;48558;48.242;11.654;2023-03-23T13:39:32;1.60;;;1.25;;
62509;SDS011;48558;48.242;11.654;2023-03-23T13:43:46;1.15;;;1.15;;
62509;SDS011;48558;48.242;11.654;2023-03-23T13:48:18;2.33;;;1.50;;
62509;SDS011;48558;48.242;11.654;2023-03-23T13:52:37;1.42;;;1.33;;
62509;SDS011;48558;48.242;11.654;2023-03-23T13:56:59;1.60;;;1.50;;
62509;SDS011;48558;48.242;11.654;2023-03-23T14:01:13;6.57;;;1.83;;
62509;SDS011;48558;48.242;11.654;2023-03-23T14:09:54;2.13;;;1.40;;
62509;SDS011;48558;48.242;11.654;2023-03-23T14:14:15;4.60;;;1.13;;
62509;SDS011;48558;48.242;11.654;2023-03-23T14:18:37;1.60;;;1.48;;
62509;SDS011;48558;48.242;11.654;2023-03-23T14:22:52;2.88;;;1.30;;
62509;SDS011;48558;48.242;11.654;2023-03-23T14:27:15;4.35;;;1.52;;
62509;SDS011;48558;48.242;11.654;2023-03-23T14:31:34;4.35;;;1.40;;
62509;SDS011;48558;48.242;11.654;2023-03-23T14:35:45;1.50;;;1.40;;
62509;SDS011;48558;48.242;11.654;2023-03-23T14:39:59;1.17;;;1.10;;
62509;SDS011;48558;48.242;11.654;2023-03-23T14:44:12;1.35;;;1.25;;
62509;SDS011;48558;48.242;11.654;2023-03-23T14:48:27;2.88;;;1.20;;
62509;SDS011;48558;48.242;11.654;2023-03-23T14:52:39;1.95;;;1.20;;
62509;SDS011;48558;48.242;11.654;2023-03-23T14:56:54;1.38;;;1.38;;
62509;SDS011;48558;48.242;11.654;2023-03-23T15:01:07;3.03;;;1.40;;
62509;SDS011;48558;48.242;11.654;2023-03-23T15:05:33;1.40;;;1.30;;
62509;SDS011;48558;48.242;11.654;2023-03-23T15:09:49;1.70;;;1.58;;
62509;SDS011;48558;48.242;11.654;2023-03-23T15:14:02;1.30;;;1.20;;
62509;SDS011;48558;48.242;11.654;2023-03-23T15:18:29;1.67;;;1.48;;
62509;SDS011;48558;48.242;11.654;2023-03-23T15:22:45;1.60;;;1.50;;
62509;SDS011;48558;48.242;11.654;2023-03-23T15:27:31;1.50;;;1.40;;
62509;SDS011;48558;48.242;11.654;2023-03-23T15:31:43;1.55;;;1.45;;
62509;SDS011;48558;48.242;11.654;2023-03-23T15:36:13;2.17;;;1.25;;
62509;SDS011;48558;48.242;11.654;2023-03-23T15:40:27;1.30;;;1.20;;
62509;SDS011;48558;48.242;11.654;2023-03-23T15:44:44;9.43;;;1.60;;
62509;SDS011;48558;48.242;11.654;2023-03-23T15:49:08;2.05;;;1.33;;
62509;SDS011;48558;48.242;11.654;2023-03-23T15:57:49;1.60;;;1.50;;
62509;SDS011;48558;48.242;11.654;2023-03-23T16:02:02;1.52;;;1.42;;
62509;SDS011;48558;48.242;11.654;2023-03-23T16:06:16;1.58;;;1.48;;
62509;SDS011;48558;48.242;11.654;2023-03-23T16:10:36;2.25;;;1.42;;
62509;SDS011;48558;48.242;11.654;2023-03-23T16:14:49;1.67;;;1.58;;
62509;SDS011;48558;48.242;11.654;2023-03-23T16:19:02;1.40;;;1.30;;
62509;SDS011;48558;48.242;11.654;2023-03-23T16:23:16;1.55;;;1.45;;
62509;SDS011;48558;48.242;11.654;2023-03-23T16:27:29;1.50;;;1.38;;
62509;SDS011;48558;48.242;11.654;2023-03-23T16:31:42;1.60;;;1.50;;
62509;SDS011;48558;48.242;11.654;2023-03-23T16:35:54;2.03;;;1.55;;
62509;SDS011;48558;48.242;11.654;2023-03-23T16:40:09;1.45;;;1.35;;
62509;SDS011;48558;48.242;11.654;2023-03-23T16:44:23;1.60;;;1.50;;
62509;SDS011;48558;48.242;11.654;2023-03-23T16:48:36;4.30;;;1.50;;
62509;SDS011;48558;48.242;11.654;2023-03-23T16:52:49;2.15;;;1.50;;
62509;SDS011;48558;48.242;11.654;2023-03-23T16:57:10;4.90;;;1.60;;
62509;SDS011;48558;48.242;11.654;2023-03-23T17:01:23;1.90;;;1.70;;
62509;SDS011;48558;48.242;11.654;2023-03-23T17:05:36;4.40;;;1.38;;
62509;SDS011;48558;48.242;11.654;2023-03-23T17:09:48;3.05;;;1.92;;
62509;SDS011;48558;48.242;11.654;2023-03-23T17:14:11;1.80;;;1.70;;
62509;SDS011;48558;48.242;11.654;2023-03-23T17:18:33;2.72;;;1.90;;
62509;SDS011;48558;48.242;11.654;2023-03-23T17:22:47;2.85;;;1.70;;
62509;SDS011;48558;48.242;11.654;2023-03-23T17:27:10;2.08;;;1.58;;
62509;SDS011;48558;48.242;11.654;2023-03-23T17:31:23;1.63;;;1.52;;
62509;SDS011;48558;48.242;11.654;2023-03-23T17:35:41;2.85;;;1.90;;
62509;SDS011;48558;48.242;11.654;2023-03-23T17:39:55;4.28;;;1.60;;
62509;SDS011;48558;48.242;11.654;2023-03-23T17:44:08;1.60;;;1.50;;
62509;SDS011;48558;48.242;11.654;2023-03-23T17:48:20;8.45;;;2.30;;
62509;SDS011;48558;48.242;11.654;2023-03-23T17:52:34;1.60;;;1.50;;
62509;SDS011;48558;48.242;11.654;2023-03-23T17:56:47;2.63;;;2.00;;
62509;SDS011;48558;48.242;11.654;2023-03-23T18:01:01;2.75;;;1.58;;
62509;SDS011;48558;48.242;11.654;2023-03-23T18:05:14;1.60;;;1.42;;
62509;SDS011;48558;48.242;11.654;2023-03-23T18:09:27;4.70;;;1.70;;
62509;SDS011;48558;48.242;11.654;2023-03-23T18:13:40;2.35;;;1.65;;
62509;SDS011;48558;48.242;11.654;2023-03-23T18:17:53;2.00;;;1.75;;
62509;SDS011;48558;48.242;11.654;2023-03-23T18:22:07;2.55;;;1.70;;
62509;SDS011;48558;48.242;11.654;2023-03-23T18:26:20;1.83;;;1.73;;
62509;SDS011;48558;48.242;11.654;2023-03-23T18:30:33;2.97;;;2.78;;
62509;SDS011;48558;48.242;11.654;2023-03-23T18:34:46;3.72;;;2.50;;
62509;SDS011;48558;48.242;11.654;2023-03-23T18:38:59;2.75;;;1.67;;
62509;SDS011;48558;48.242;11.654;2023-03-23T18:43:12;2.17;;;1.80;;
62509;SDS011;48558;48.242;11.654;2023-03-23T18:47:25;3.00;;;1.90;;
62509;SDS011;48558;48.242;11.654;2023-03-23T18:51:38;5.20;;;1.98;;
62509;SDS011;48558;48.242;11.654;2023-03-23T18:56:07;2.03;;;1.83;;
62509;SDS011;48558;48.242;11.654;2023-03-23T19:00:23;2.10;;;1.90;;
62509;SDS011;48558;48.242;11.654;2023-03-23T19:04:36;1.92;;;1.77;;
62509;SDS011;48558;48.242;11.654;2023-03-23T19:08:48;2.05;;;1.92;;
62509;SDS011;48558;48.242;11.654;2023-03-23T19:13:03;2.08;;;1.70;;
62509;SDS011;48558;48.242;11.654;2023-03-23T19:17:15;3.50;;;2.03;;
62509;SDS011;48558;48.242;11.654;2023-03-23T19:21:28;2.33;;;2.13;;
62509;SDS011;48558;48.242;11.654;2023-03-23T19:25:43;4.75;;;2.50;;
62509;SDS011;48558;48.242;11.654;2023-03-23T19:29:58;3.17;;;2.28;;
62509;SDS011;48558;48.242;11.654;2023-03-23T19:34:11;3.97;;;2.60;;
62509;SDS011;48558;48.242;11.654;2023-03-23T19:38:24;2.83;;;2.47;;
62509;SDS011;48558;48.242;11.654;2023-03-23T19:42:36;3.05;;;2.35;;
62509;SDS011;48558;48.242;11.654;2023-03-23T19:46:50;3.05;;;2.13;;
62509;SDS011;48558;48.242;11.654;2023-03-23T19:51:04;4.00;;;2.33;;
62509;SDS011;48558;48.242;11.654;2023-03-23T19:55:17;3.55;;;2.42;;
62509;SDS011;48558;48.242;11.654;2023-03-23T19:59:30;5.03;;;2.30;;
62509;SDS011;48558;48.242;11.654;2023-03-23T20:03:42;2.53;;;2.17;;
62509;SDS011;48558;48.242;11.654;2023-03-23T20:07:56;4.15;;;2.53;;
62509;SDS011;48558;48.242;11.654;2023-03-23T20:12:08;4.50;;;2.60;;
62509;SDS011;48558;48.242;11.654;2023-03-23T20:16:31;2.85;;;2.10;;
62509;SDS011;48558;48.242;11.654;2023-03-23T20:21:06;2.90;;;2.30;;
62509;SDS011;48558;48.242;11.654;2023-03-23T20:25:24;3.50;;;2.00;;
62509;SDS011;48558;48.242;11.654;2023-03-23T20:29:36;2.78;;;2.20;;
62509;SDS011;48558;48.242;11.654;2023-03-23T20:33:52;3.22;;;2.50;;
62509;SDS011;48558;48.242;11.654;2023-03-23T20:38:11;4.47;;;2.30;;
62509;SDS011;48558;48.242;11.654;2023-03-23T20:42:24;3.03;;;2.65;;
62509;SDS011;48558;48.242;11.654;2023-03-23T20:46:36;3.08;;;2.50;;
62509;SDS011;48558;48.242;11.654;2023-03-23T20:50:49;5.30;;;2.70;;
62509;SDS011;48558;48.242;11.654;2023-03-23T20:55:02;3.78;;;2.80;;
62509;SDS011;48558;48.242;11.654;2023-03-23T20:59:15;5.97;;;2.75;;
62509;SDS011;48558;48.242;11.654;2023-03-23T21:03:34;4.30;;;2.75;;
62509;SDS011;48558;48.242;11.654;2023-03-23T21:07:51;5.82;;;3.33;;
62509;SDS011;48558;48.242;11.654;2023-03-23T21:12:03;3.50;;;2.13;;
62509;SDS011;48558;48.242;11.654;2023-03-23T21:16:17;4.43;;;2.80;;
62509;SDS011;48558;48.242;11.654;2023-03-23T21:20:30;4.00;;;2.65;;
62509;SDS011;48558;48.242;11.654;2023-03-23T21:24:44;3.40;;;2.22;;
62509;SDS011;48558;48.242;11.654;2023-03-23T21:28:57;2.63;;;2.40;;
62509;SDS011;48558;48.242;11.654;2023-03-23T21:33:11;3.30;;;2.53;;
62509;SDS011;48558;48.242;11.654;2023-03-23T21:37:24;3.22;;;2.60;;
62509;SDS011;48558;48.242;11.654;2023-03-23T21:41:37;2.85;;;2.50;;
62509;SDS011;48558;48.242;11.654;2023-03-23T21:45:57;2.80;;;2.47;;
62509;SDS011;48558;48.242;11.654;2023-03-23T21:50:13;2.75;;;2.45;;
62509;SDS011;48558;48.242;11.654;2023-03-23T21:54:28;3.63;;;2.75;;
62509;SDS011;48558;48.242;11.654;2023-03-23T21:58:41;2.58;;;2.38;;
62509;SDS011;48558;48.242;11.654;2023-03-23T22:02:54;3.85;;;2.47;;
62509;SDS011;48558;48.242;11.654;2023-03-23T22:07:07;2.92;;;2.38;;
62509;SDS011;48558;48.242;11.654;2023-03-23T22:11:21;4.43;;;2.72;;
62509;SDS011;48558;48.242;11.654;2023-03-23T22:15:37;2.80;;;2.60;;
62509;SDS011;48558;48.242;11.654;2023-03-23T22:19:52;3.15;;;2.50;;
62509;SDS011;48558;48.242;11.654;2023-03-23T22:24:05;3.20;;;2.90;;
62509;SDS011;48558;48.242;11.654;2023-03-23T22:28:17;4.88;;;2.70;;
62509;SDS011;48558;48.242;11.654;2023-03-23T22:32:33;3.03;;;2.58;;
62509;SDS011;48558;48.242;11.654;2023-03-23T22:36:46;3.58;;;2.80;;
62509;SDS011;48558;48.242;11.654;2023-03-23T22:41:03;3.45;;;2.40;;
62509;SDS011;48558;48.242;11.654;2023-03-23T22:45:17;3.85;;;2.75;;
62509;SDS011;48558;48.242;11.654;2023-03-23T22:49:30;3.03;;;2.40;;
62509;SDS011;48558;48.242;11.654;2023-03-23T22:53:45;5.22;;;2.85;;
62509;SDS011;48558;48.242;11.654;2023-03-23T22:57:58;3.22;;;2.92;;
62509;SDS011;48558;48.242;11.654;2023-03-23T23:02:15;2.90;;;2.60;;
62509;SDS011;48558;48.242;11.654;2023-03-23T23:06:28;2.60;;;2.40;;
62509;SDS011;48558;48.242;11.654;2023-03-23T23:10:46;3.30;;;2.72;;
62509;SDS011;48558;48.242;11.654;2023-03-23T23:15:04;4.32;;;2.88;;
62509;SDS011;48558;48.242;11.654;2023-03-23T23:19:18;4.20;;;3.03;;
62509;SDS011;48558;48.242;11.654;2023-03-23T23:23:31;5.63;;;3.10;;
62509;SDS011;48558;48.242;11.654;2023-03-23T23:27:45;3.53;;;3.15;;
62509;SDS011;48558;48.242;11.654;2023-03-23T23:31:57;2.72;;;2.53;;
62509;SDS011;48558;48.242;11.654;2023-03-23T23:36:13;3.00;;;2.70;;
62509;SDS011;48558;48.242;11.654;2023-03-23T23:40:25;2.63;;;2.42;;
62509;SDS011;48558;48.242;11.654;2023-03-23T23:44:38;4.07;;;2.50;;
62509;SDS011;48558;48.242;11.654;2023-03-23T23:49:00;3.85;;;2.80;;
62509;SDS011;48558;48.242;11.654;2023-03-23T23:53:13;3.22;;;2.65;;
62509;SDS011;48558;48.242;11.654;2023-03-23T23:57:26;2.90;;;2.60;;
